Time;durP1;ratioP1;P1;durP2;ratioP2;P2;SDS_P1;SDS_P2;PMS_P1;PMS_P2;Temp;Humidity;BMP_temperature;BMP_pressure;BME280_temperature;BME280_humidity;BME280_pressure;Samples;Min_cycle;Max_cycle;Signal;HPM_P1;HPM_P2
2023/01/01 00:02:15;;;;;;;69.50;62.23;;;14.00;99.90;;;;;;6082787;23;20445;-68
2023/01/01 00:04:42;;;;;;;131.63;118.13;;;14.00;99.90;;;;;;6092724;23;20439;-68
2023/01/01 00:07:09;;;;;;;57.70;51.80;;;14.00;99.90;;;;;;6087220;23;20445;-68
2023/01/01 00:12:22;;;;;;;46.30;41.67;;;14.00;99.90;;;;;;6086413;23;20440;-69
2023/01/01 00:15:03;;;;;;;41.53;37.47;;;14.00;99.90;;;;;;6089272;23;20941;-68
2023/01/01 00:17:50;;;;;;;40.03;36.00;;;14.10;99.90;;;;;;6089868;23;20468;-68
2023/01/01 00:20:38;;;;;;;41.83;37.77;;;14.10;99.90;;;;;;6092250;23;20979;-69
2023/01/01 00:23:04;;;;;;;42.90;38.63;;;14.10;99.90;;;;;;6090254;23;20556;-69
2023/01/01 00:25:36;;;;;;;50.80;45.40;;;14.10;99.90;;;;;;6099831;23;20441;-68
2023/01/01 00:28:04;;;;;;;54.40;48.93;;;13.90;99.90;;;;;;6090275;23;20457;-68
2023/01/01 00:30:32;;;;;;;53.23;48.03;;;13.80;99.90;;;;;;6096272;23;20534;-69
2023/01/01 00:32:59;;;;;;;47.47;42.77;;;13.60;99.90;;;;;;6086248;23;21141;-69
2023/01/01 00:35:26;;;;;;;43.80;39.60;;;13.60;99.90;;;;;;6087062;23;21161;-68
2023/01/01 00:37:55;;;;;;;39.20;35.60;;;13.50;99.90;;;;;;6089646;23;20467;-69
2023/01/01 00:40:22;;;;;;;32.87;29.87;;;13.40;99.90;;;;;;6097926;23;20475;-69
2023/01/01 00:42:49;;;;;;;28.97;26.20;;;13.50;99.90;;;;;;6086560;23;20439;-68
2023/01/01 00:45:17;;;;;;;24.43;22.13;;;13.50;99.90;;;;;;6098967;23;20525;-79
2023/01/01 00:47:44;;;;;;;21.07;19.00;;;13.60;99.90;;;;;;6097296;23;20422;-70
2023/01/01 00:50:11;;;;;;;18.47;16.77;;;13.70;99.90;;;;;;6094546;23;21032;-81
2023/01/01 00:52:38;;;;;;;18.43;16.73;;;13.90;99.90;;;;;;6083163;23;20435;-82
2023/01/01 00:55:06;;;;;;;16.67;15.07;;;14.00;99.90;;;;;;6095174;23;20435;-67
2023/01/01 00:57:34;;;;;;;13.37;12.07;;;14.00;99.90;;;;;;6091677;23;20467;-72
2023/01/01 01:00:01;;;;;;;12.60;11.43;;;14.10;99.90;;;;;;6092505;23;20468;-67
2023/01/01 01:02:29;;;;;;;10.90;9.87;;;14.20;99.90;;;;;;6097879;23;20438;-70
2023/01/01 01:04:56;;;;;;;10.30;9.30;;;14.30;99.90;;;;;;6077399;23;20541;-70
2023/01/01 01:07:23;;;;;;;10.37;9.47;;;14.30;99.90;;;;;;6079695;23;20454;-68
2023/01/01 01:09:50;;;;;;;8.40;7.60;;;14.40;99.90;;;;;;6084497;23;20874;-67
2023/01/01 01:12:17;;;;;;;9.00;8.20;;;14.40;99.90;;;;;;6106425;23;20519;-73
2023/01/01 01:14:44;;;;;;;9.17;8.37;;;14.50;99.90;;;;;;6087040;23;20483;-68
2023/01/01 01:17:11;;;;;;;9.43;8.63;;;14.50;99.90;;;;;;6076631;23;20470;-67
2023/01/01 01:19:39;;;;;;;8.77;8.07;;;14.50;99.90;;;;;;6068008;23;20542;-68
2023/01/01 01:22:07;;;;;;;8.30;7.50;;;14.50;99.90;;;;;;6081255;23;21966;-67
2023/01/01 01:24:34;;;;;;;8.33;7.63;;;14.40;99.90;;;;;;6076025;23;20432;-68
2023/01/01 01:27:01;;;;;;;8.83;7.93;;;14.40;99.90;;;;;;6062078;23;20444;-66
2023/01/01 01:29:29;;;;;;;8.60;7.80;;;14.40;99.90;;;;;;6074430;23;21003;-65
2023/01/01 01:31:56;;;;;;;8.63;7.33;;;14.40;99.90;;;;;;6077019;23;20495;-66
2023/01/01 01:34:22;;;;;;;7.53;6.83;;;14.40;99.90;;;;;;6079689;23;20487;-67
2023/01/01 01:36:51;;;;;;;7.80;7.00;;;14.30;99.90;;;;;;6091778;23;20957;-67
2023/01/01 01:39:19;;;;;;;8.03;7.30;;;14.30;99.90;;;;;;6086351;23;20497;-71
2023/01/01 01:41:46;;;;;;;7.63;6.93;;;14.30;99.90;;;;;;6088271;23;20442;-66
2023/01/01 01:44:48;;;;;;;9.17;7.13;;;14.30;99.90;;;;;;6091347;23;20448;-66
2023/01/01 01:47:18;;;;;;;7.60;6.87;;;14.30;99.90;;;;;;6095185;23;20529;-68
2023/01/01 01:49:45;;;;;;;8.53;7.37;;;14.20;99.90;;;;;;6081312;23;20461;-68
2023/01/01 01:52:14;;;;;;;7.60;6.90;;;14.20;99.90;;;;;;6103854;23;20468;-67
2023/01/01 01:54:42;;;;;;;7.73;6.87;;;14.10;99.90;;;;;;6088217;23;20470;-67
2023/01/01 01:57:12;;;;;;;7.20;6.60;;;14.10;99.90;;;;;;6090716;23;20544;-66
2023/01/01 01:59:43;;;;;;;7.33;6.53;;;14.10;99.90;;;;;;6092843;23;20552;-67
2023/01/01 02:02:18;;;;;;;6.93;6.23;;;14.10;99.90;;;;;;6089657;23;20469;-66
2023/01/01 02:04:45;;;;;;;6.93;6.27;;;14.10;99.90;;;;;;6080476;23;20522;-67
2023/01/01 02:07:15;;;;;;;6.33;5.73;;;14.20;99.90;;;;;;6087466;23;20459;-67
2023/01/01 02:09:42;;;;;;;6.50;5.90;;;14.20;99.90;;;;;;6073666;23;20548;-67
2023/01/01 02:12:09;;;;;;;9.07;8.17;;;14.20;99.90;;;;;;6086940;23;20523;-67
2023/01/01 02:14:37;;;;;;;11.90;10.80;;;14.10;99.90;;;;;;6086948;23;20831;-67
2023/01/01 02:17:09;;;;;;;13.97;12.67;;;14.00;99.90;;;;;;6084947;23;20442;-67
2023/01/01 02:19:50;;;;;;;14.60;13.20;;;13.80;99.90;;;;;;6084530;23;20535;-67
2023/01/01 02:22:29;;;;;;;13.40;12.10;;;13.70;99.90;;;;;;6088413;23;20757;-67
2023/01/01 02:25:07;;;;;;;10.90;9.83;;;13.70;99.90;;;;;;6084208;23;20967;-67
2023/01/01 02:27:47;;;;;;;12.57;11.37;;;13.70;99.90;;;;;;6084393;23;20497;-67
2023/01/01 02:30:16;;;;;;;9.73;8.43;;;13.70;99.90;;;;;;6090935;23;20874;-67
2023/01/01 02:32:47;;;;;;;8.97;8.07;;;13.90;99.90;;;;;;6088653;23;20455;-67
2023/01/01 02:35:34;;;;;;;8.23;7.47;;;14.00;99.90;;;;;;6086362;23;20502;-67
2023/01/01 02:38:07;;;;;;;8.37;7.57;;;14.00;99.90;;;;;;6078010;23;20464;-67
2023/01/01 02:40:38;;;;;;;8.60;7.80;;;14.00;99.90;;;;;;6081886;23;20492;-67
2023/01/01 02:43:06;;;;;;;10.50;8.47;;;14.00;99.90;;;;;;6075213;23;20778;-67
2023/01/01 02:45:35;;;;;;;9.97;9.07;;;14.00;99.90;;;;;;6085322;23;20435;-67
2023/01/01 02:48:05;;;;;;;11.60;10.50;;;14.00;99.90;;;;;;6087367;23;20526;-67
2023/01/01 02:50:34;;;;;;;12.50;11.33;;;14.00;99.90;;;;;;6087572;23;20462;-67
2023/01/01 02:53:10;;;;;;;14.00;12.60;;;13.90;99.90;;;;;;6075401;23;20437;-67
2023/01/01 02:55:52;;;;;;;13.53;12.33;;;13.90;99.90;;;;;;6085393;23;21023;-67
2023/01/01 03:01:19;;;;;;;9.00;8.10;;;13.70;99.90;;;;;;6082985;23;20447;-66
2023/01/01 03:03:53;;;;;;;8.30;7.50;;;13.60;99.90;;;;;;6078016;23;20438;-67
2023/01/01 03:06:27;;;;;;;7.80;7.00;;;13.60;99.90;;;;;;6081180;23;20436;-67
2023/01/01 03:09:03;;;;;;;7.63;6.93;;;13.70;99.90;;;;;;6083543;23;20468;-67
2023/01/01 03:11:38;;;;;;;10.40;9.43;;;13.70;99.90;;;;;;6095535;23;20470;-67
2023/01/01 03:14:12;;;;;;;12.30;11.10;;;13.70;99.90;;;;;;6076315;23;20442;-67
2023/01/01 03:16:45;;;;;;;11.47;10.23;;;13.70;99.90;;;;;;6087354;23;20458;-66
2023/01/01 03:19:16;;;;;;;10.27;9.27;;;13.70;99.90;;;;;;6087994;23;20558;-67
2023/01/01 03:21:47;;;;;;;11.03;9.77;;;13.60;99.90;;;;;;6090068;23;20533;-67
2023/01/01 03:24:20;;;;;;;10.50;7.70;;;13.70;99.90;;;;;;6081405;23;20440;-67
2023/01/01 03:26:52;;;;;;;8.90;8.00;;;13.70;99.90;;;;;;6080198;23;20477;-67
2023/01/01 03:29:21;;;;;;;10.47;8.73;;;13.70;99.90;;;;;;6087786;23;20546;-67
2023/01/01 03:31:53;;;;;;;8.97;8.07;;;13.70;99.90;;;;;;6097748;23;20454;-67
2023/01/01 03:34:26;;;;;;;6.90;6.20;;;13.70;99.90;;;;;;6081273;23;20497;-67
2023/01/01 03:36:57;;;;;;;7.60;6.77;;;13.80;99.90;;;;;;6091300;23;20449;-67
2023/01/01 03:39:29;;;;;;;6.47;5.83;;;13.80;99.90;;;;;;6079709;23;21835;-66
2023/01/01 03:42:06;;;;;;;6.80;6.10;;;13.80;99.90;;;;;;6080249;23;20467;-66
2023/01/01 03:44:35;;;;;;;6.90;6.07;;;13.90;99.90;;;;;;6079507;23;21361;-66
2023/01/01 03:47:05;;;;;;;7.57;6.77;;;13.90;99.90;;;;;;6081008;23;20529;-66
2023/01/01 03:49:33;;;;;;;7.57;6.73;;;14.20;99.90;;;;;;6073707;23;20980;-66
2023/01/01 03:52:14;;;;;;;6.70;5.73;;;13.90;99.90;;;;;;6097908;23;20433;-66
2023/01/01 03:54:48;;;;;;;8.00;6.13;;;13.90;99.90;;;;;;6087766;23;20870;-66
2023/01/01 03:57:21;;;;;;;6.17;5.67;;;13.90;99.90;;;;;;6087165;23;20522;-66
2023/01/01 03:59:56;;;;;;;4.70;4.30;;;13.90;99.90;;;;;;6076515;23;20505;-66
2023/01/01 04:02:30;;;;;;;6.10;4.50;;;13.90;99.90;;;;;;6078058;23;20975;-66
2023/01/01 04:05:00;;;;;;;4.90;4.40;;;13.90;99.90;;;;;;6079777;23;20445;-66
2023/01/01 04:07:29;;;;;;;5.00;4.57;;;13.90;99.90;;;;;;6082345;23;20712;-66
2023/01/01 04:09:59;;;;;;;4.00;3.70;;;13.90;99.90;;;;;;6079606;23;20469;-66
2023/01/01 04:12:27;;;;;;;4.90;4.33;;;13.90;99.90;;;;;;6082275;23;20445;-66
2023/01/01 04:14:53;;;;;;;4.77;4.27;;;13.90;99.90;;;;;;6087285;23;20444;-66
2023/01/01 04:17:20;;;;;;;7.10;5.00;;;13.90;99.90;;;;;;6079132;23;20510;-66
2023/01/01 04:19:49;;;;;;;4.70;4.30;;;13.80;99.90;;;;;;6074403;23;20524;-66
2023/01/01 04:22:16;;;;;;;4.40;3.50;;;13.80;99.90;;;;;;6092312;23;20515;-66
2023/01/01 04:24:43;;;;;;;5.27;3.80;;;13.70;99.90;;;;;;6086965;23;20447;-66
2023/01/01 04:27:11;;;;;;;4.20;3.70;;;13.60;99.90;;;;;;6086472;23;21613;-66
2023/01/01 04:29:40;;;;;;;4.20;3.80;;;13.60;99.90;;;;;;6100182;23;20812;-66
2023/01/01 04:32:07;;;;;;;5.57;3.60;;;13.60;99.90;;;;;;6086535;23;20454;-66
2023/01/01 04:34:34;;;;;;;4.50;4.10;;;13.50;99.90;;;;;;6099480;23;20804;-66
2023/01/01 04:37:03;;;;;;;3.20;3.00;;;13.40;99.90;;;;;;6085964;23;20439;-66
2023/01/01 04:39:29;;;;;;;4.63;3.40;;;13.40;99.90;;;;;;6086866;23;20534;-66
2023/01/01 04:41:57;;;;;;;4.47;3.70;;;13.40;99.90;;;;;;6082299;23;20954;-66
2023/01/01 04:44:23;;;;;;;3.70;3.40;;;13.40;99.90;;;;;;6086019;23;20432;-66
2023/01/01 04:46:50;;;;;;;4.00;3.57;;;13.50;99.90;;;;;;6086813;23;20445;-66
2023/01/01 04:49:18;;;;;;;4.97;3.20;;;13.50;99.90;;;;;;6084020;23;20471;-66
2023/01/01 04:51:45;;;;;;;4.63;3.57;;;13.50;99.90;;;;;;6079139;23;20445;-66
2023/01/01 04:54:13;;;;;;;3.40;3.10;;;13.60;99.90;;;;;;6083642;23;20802;-66
2023/01/01 04:56:40;;;;;;;3.57;3.27;;;13.60;99.90;;;;;;6077915;23;20435;-66
2023/01/01 04:59:07;;;;;;;4.77;3.33;;;13.60;99.90;;;;;;6084484;23;20472;-66
2023/01/01 05:01:34;;;;;;;4.03;3.27;;;13.70;99.90;;;;;;6085218;23;20863;-66
2023/01/01 05:04:01;;;;;;;3.63;3.23;;;13.70;99.90;;;;;;6088717;23;20940;-66
2023/01/01 05:06:28;;;;;;;3.93;3.57;;;13.70;99.90;;;;;;6092950;23;20438;-66
2023/01/01 05:08:56;;;;;;;4.60;3.43;;;13.80;99.90;;;;;;6078058;23;20467;-66
2023/01/01 05:11:27;;;;;;;3.70;3.20;;;13.80;99.90;;;;;;6086231;23;20476;-66
2023/01/01 05:13:56;;;;;;;3.37;3.07;;;13.70;99.90;;;;;;6086142;23;20443;-66
2023/01/01 05:16:25;;;;;;;3.60;3.13;;;13.70;99.90;;;;;;6082115;23;20534;-66
2023/01/01 05:18:52;;;;;;;5.07;3.77;;;13.70;99.90;;;;;;6079489;23;20555;-66
2023/01/01 05:21:21;;;;;;;4.60;3.53;;;13.70;99.90;;;;;;6078765;23;20464;-66
2023/01/01 05:23:49;;;;;;;5.00;3.13;;;13.70;99.90;;;;;;6078970;23;20448;-66
2023/01/01 05:26:18;;;;;;;5.23;3.77;;;13.70;99.90;;;;;;6089718;23;20525;-66
2023/01/01 05:28:47;;;;;;;6.07;3.07;;;13.70;99.90;;;;;;6070684;23;20480;-66
2023/01/01 05:31:16;;;;;;;3.90;2.80;;;13.70;99.90;;;;;;6092785;23;20445;-66
2023/01/01 05:33:44;;;;;;;3.30;2.60;;;13.70;99.90;;;;;;6083585;23;20440;-66
2023/01/01 05:36:15;;;;;;;3.13;2.80;;;13.60;99.90;;;;;;6089705;23;20446;-66
2023/01/01 05:38:42;;;;;;;3.00;2.70;;;13.70;99.90;;;;;;6070946;23;20481;-66
2023/01/01 05:41:11;;;;;;;3.53;3.10;;;13.70;99.90;;;;;;6090845;23;20529;-65
2023/01/01 05:43:38;;;;;;;3.47;2.90;;;13.70;99.90;;;;;;6078262;23;20759;-66
2023/01/01 05:46:10;;;;;;;4.17;3.00;;;13.70;99.90;;;;;;6077420;23;20854;-66
2023/01/01 05:48:37;;;;;;;5.03;2.40;;;13.70;99.90;;;;;;6076998;23;20532;-66
2023/01/01 05:51:05;;;;;;;3.53;2.50;;;13.70;99.90;;;;;;6083923;23;20525;-66
2023/01/01 05:53:32;;;;;;;3.90;2.83;;;13.70;99.90;;;;;;6084390;23;20468;-66
2023/01/01 05:56:00;;;;;;;3.27;2.67;;;13.70;99.90;;;;;;6078709;23;20583;-66
2023/01/01 05:58:29;;;;;;;2.63;2.43;;;13.70;99.90;;;;;;6082878;23;21044;-65
2023/01/01 06:00:56;;;;;;;2.70;2.50;;;13.70;99.90;;;;;;6080481;23;20450;-66
2023/01/01 06:03:24;;;;;;;3.77;2.27;;;13.80;99.90;;;;;;6088408;23;20524;-66
2023/01/01 06:05:51;;;;;;;2.93;2.20;;;13.80;99.90;;;;;;6084062;23;20525;-67
2023/01/01 06:08:18;;;;;;;3.13;2.67;;;13.80;99.90;;;;;;6072618;23;20440;-67
2023/01/01 06:10:45;;;;;;;2.60;2.40;;;13.80;99.90;;;;;;6092271;23;20446;-66
2023/01/01 06:13:12;;;;;;;4.43;2.27;;;13.80;99.90;;;;;;6085610;23;20444;-66
2023/01/01 06:15:39;;;;;;;3.07;2.17;;;13.70;99.90;;;;;;6081054;23;20928;-66
2023/01/01 06:18:06;;;;;;;3.30;2.37;;;13.80;99.90;;;;;;6082354;23;20529;-66
2023/01/01 06:20:35;;;;;;;3.90;2.57;;;13.70;99.90;;;;;;6082852;23;20483;-66
2023/01/01 06:23:02;;;;;;;3.60;2.50;;;13.70;99.90;;;;;;6076542;23;20455;-66
2023/01/01 06:25:29;;;;;;;2.87;2.23;;;13.50;99.90;;;;;;6086738;23;20437;-66
2023/01/01 06:27:56;;;;;;;3.83;3.10;;;13.50;99.90;;;;;;6075702;23;20833;-66
2023/01/01 06:30:23;;;;;;;3.07;2.40;;;13.40;99.90;;;;;;6083280;23;20537;-67
2023/01/01 06:32:50;;;;;;;3.10;2.90;;;13.40;99.90;;;;;;6084841;23;20891;-67
2023/01/01 06:35:17;;;;;;;3.13;2.80;;;13.40;99.90;;;;;;6086295;23;20535;-67
2023/01/01 06:37:45;;;;;;;4.43;3.03;;;13.30;99.90;;;;;;6072833;23;20529;-66
2023/01/01 06:40:13;;;;;;;3.13;2.80;;;13.30;99.90;;;;;;6080052;23;20510;-66
2023/01/01 06:42:40;;;;;;;3.20;2.90;;;13.40;99.90;;;;;;6080193;23;21257;-67
2023/01/01 06:45:09;;;;;;;4.43;3.17;;;13.10;99.90;;;;;;6088267;23;20475;-67
2023/01/01 06:47:36;;;;;;;4.13;3.20;;;13.00;99.90;;;;;;6087359;23;20947;-67
2023/01/01 06:50:04;;;;;;;3.47;3.17;;;13.00;99.90;;;;;;6086810;23;20475;-66
2023/01/01 06:52:31;;;;;;;3.93;3.57;;;13.00;99.90;;;;;;6101427;23;20433;-66
2023/01/01 06:55:00;;;;;;;3.70;3.07;;;12.90;99.90;;;;;;6107427;23;20435;-66
2023/01/01 06:57:27;;;;;;;4.33;3.00;;;12.90;99.90;;;;;;6090349;23;20475;-66
2023/01/01 06:59:54;;;;;;;4.33;3.47;;;12.80;99.90;;;;;;6086516;23;20545;-66
2023/01/01 07:02:21;;;;;;;3.77;3.40;;;12.80;99.90;;;;;;6091679;23;20526;-66
2023/01/01 07:04:49;;;;;;;4.10;3.70;;;12.80;99.90;;;;;;6088438;23;20450;-66
2023/01/01 07:07:16;;;;;;;3.43;3.13;;;12.80;99.90;;;;;;6085677;23;20505;-67
2023/01/01 07:09:42;;;;;;;3.73;3.43;;;12.80;99.90;;;;;;6096153;23;20478;-67
2023/01/01 07:12:11;;;;;;;4.37;3.93;;;12.80;99.90;;;;;;6086993;23;20449;-66
2023/01/01 07:14:38;;;;;;;3.83;3.00;;;12.80;99.90;;;;;;6086370;23;20557;-67
2023/01/01 07:17:05;;;;;;;4.53;3.20;;;12.80;99.90;;;;;;6089226;23;20526;-67
2023/01/01 07:19:32;;;;;;;3.73;3.30;;;12.80;99.90;;;;;;6094762;23;20475;-67
2023/01/01 07:21:59;;;;;;;4.10;3.13;;;12.80;99.90;;;;;;6087381;23;20981;-67
2023/01/01 07:24:26;;;;;;;4.53;3.70;;;12.80;99.90;;;;;;6091580;23;20462;-67
2023/01/01 07:26:53;;;;;;;3.53;3.23;;;12.90;99.90;;;;;;6087417;23;20993;-67
2023/01/01 07:29:21;;;;;;;3.60;3.17;;;12.90;99.90;;;;;;6093475;23;20808;-67
2023/01/01 07:31:48;;;;;;;3.33;3.03;;;13.00;99.90;;;;;;6092468;23;20493;-67
2023/01/01 07:34:18;;;;;;;4.43;3.70;;;13.00;99.90;;;;;;6091326;23;20193;-67
2023/01/01 07:36:45;;;;;;;4.17;3.70;;;13.00;99.90;;;;;;6090767;23;21031;-67
2023/01/01 07:39:12;;;;;;;4.87;3.63;;;13.00;99.90;;;;;;6087798;23;20471;-67
2023/01/01 07:41:39;;;;;;;3.63;3.05;;;13.00;99.90;;;;;;6087041;23;20446;-67
2023/01/01 07:44:06;;;;;;;3.97;3.07;;;13.10;99.90;;;;;;6086154;23;20259;-67
2023/01/01 07:46:36;;;;;;;5.83;3.47;;;13.10;99.90;;;;;;6066528;23;20946;-67
2023/01/01 07:49:04;;;;;;;4.87;3.77;;;13.10;99.90;;;;;;6089433;23;20492;-67
2023/01/01 07:51:30;;;;;;;3.83;3.40;;;13.10;99.90;;;;;;6089308;23;22253;-67
2023/01/01 07:53:57;;;;;;;3.50;3.20;;;13.20;99.90;;;;;;6096553;23;20526;-67
2023/01/01 07:56:25;;;;;;;3.87;3.47;;;13.20;99.90;;;;;;6089720;23;20522;-67
2023/01/01 07:58:52;;;;;;;3.00;2.70;;;13.20;99.90;;;;;;6091351;23;20491;-67
2023/01/01 08:01:19;;;;;;;3.70;3.33;;;13.20;99.90;;;;;;6099825;23;20438;-67
2023/01/01 08:03:52;;;;;;;3.60;3.17;;;13.20;99.90;;;;;;6102585;23;21659;-67
2023/01/01 08:06:21;;;;;;;5.73;3.10;;;13.30;99.90;;;;;;6083273;23;20493;-67
2023/01/01 08:08:48;;;;;;;5.30;3.67;;;13.40;99.90;;;;;;6099726;23;20479;-67
2023/01/01 08:11:15;;;;;;;2.93;2.60;;;13.40;99.90;;;;;;6089016;23;20442;-67
2023/01/01 08:13:42;;;;;;;4.67;3.17;;;13.50;99.90;;;;;;6095474;23;20440;-67
2023/01/01 08:16:10;;;;;;;3.90;3.10;;;13.50;99.90;;;;;;6082819;23;20448;-67
2023/01/01 08:18:37;;;;;;;3.10;2.90;;;13.50;99.90;;;;;;6084785;23;20499;-68
2023/01/01 08:21:05;;;;;;;3.80;3.00;;;13.50;99.90;;;;;;6085925;23;20219;-67
2023/01/01 08:23:33;;;;;;;4.97;3.17;;;13.50;99.90;;;;;;6085369;23;20801;-67
2023/01/01 08:26:01;;;;;;;3.30;3.00;;;13.50;99.90;;;;;;6088235;23;20444;-67
2023/01/01 08:28:28;;;;;;;4.53;3.07;;;13.50;99.90;;;;;;6087896;23;20459;-67
2023/01/01 08:30:55;;;;;;;2.90;2.60;;;13.60;99.90;;;;;;6071557;23;20500;-67
2023/01/01 08:33:23;;;;;;;3.77;2.93;;;13.60;99.90;;;;;;6095378;23;20784;-67
2023/01/01 08:35:50;;;;;;;4.23;2.93;;;13.70;99.90;;;;;;6089857;23;20543;-67
2023/01/01 08:38:19;;;;;;;3.90;2.70;;;13.70;99.90;;;;;;6084472;23;20553;-67
2023/01/01 08:40:46;;;;;;;3.30;2.73;;;13.70;99.90;;;;;;6089022;23;20468;-67
2023/01/01 08:43:13;;;;;;;3.07;2.77;;;13.80;99.90;;;;;;6088193;23;20525;-66
2023/01/01 08:45:40;;;;;;;5.23;3.20;;;13.80;99.90;;;;;;6081046;23;20520;-67
2023/01/01 08:48:07;;;;;;;2.80;2.50;;;13.80;99.90;;;;;;6085242;23;20565;-67
2023/01/01 08:50:34;;;;;;;3.40;3.10;;;13.80;99.90;;;;;;6080789;23;20438;-67
2023/01/01 08:53:01;;;;;;;3.40;3.10;;;13.80;99.90;;;;;;6089075;23;20964;-67
2023/01/01 08:55:30;;;;;;;3.30;3.00;;;13.80;99.90;;;;;;6092947;23;20436;-67
2023/01/01 08:57:57;;;;;;;3.00;2.80;;;13.90;99.90;;;;;;6087988;23;20449;-67
2023/01/01 09:00:24;;;;;;;5.20;3.20;;;13.90;99.90;;;;;;6088163;23;20462;-66
2023/01/01 09:02:52;;;;;;;3.07;2.87;;;14.00;99.90;;;;;;6090781;23;20419;-67
2023/01/01 09:05:19;;;;;;;3.83;2.83;;;14.10;99.90;;;;;;6081485;23;20448;-67
2023/01/01 09:07:46;;;;;;;3.13;2.83;;;14.40;99.90;;;;;;6075289;23;20525;-67
2023/01/01 09:10:13;;;;;;;3.93;3.20;;;14.80;99.90;;;;;;6088664;23;20444;-67
2023/01/01 09:12:41;;;;;;;3.13;2.80;;;15.00;99.90;;;;;;6077309;23;20752;-66
2023/01/01 09:15:14;;;;;;;2.90;2.40;;;15.20;99.90;;;;;;6079907;23;20450;-67
2023/01/01 09:17:41;;;;;;;3.20;2.73;;;15.30;99.90;;;;;;6078953;23;20426;-67
2023/01/01 09:20:09;;;;;;;4.17;2.90;;;15.30;99.90;;;;;;6081807;23;20852;-67
2023/01/01 09:22:36;;;;;;;3.10;2.83;;;15.30;99.90;;;;;;6090359;23;20457;-67
2023/01/01 09:25:03;;;;;;;4.37;3.07;;;15.30;99.90;;;;;;6089941;23;20933;-66
2023/01/01 09:27:31;;;;;;;3.80;2.70;;;15.30;99.90;;;;;;6087886;23;20442;-67
2023/01/01 09:29:59;;;;;;;3.67;2.80;;;15.40;99.90;;;;;;6078724;23;20469;-67
2023/01/01 09:32:26;;;;;;;3.40;3.10;;;15.50;99.90;;;;;;6082172;23;20442;-67
2023/01/01 09:34:55;;;;;;;3.27;2.80;;;15.50;99.90;;;;;;6093797;23;20462;-67
2023/01/01 09:37:22;;;;;;;3.50;2.67;;;15.60;99.90;;;;;;6093190;23;20438;-67
2023/01/01 09:39:49;;;;;;;2.63;2.43;;;15.70;99.90;;;;;;6084873;23;20469;-67
2023/01/01 09:42:25;;;;;;;3.20;2.70;;;15.80;99.90;;;;;;6084552;23;20441;-67
2023/01/01 09:45:09;;;;;;;2.93;2.63;;;16.00;99.90;;;;;;6086988;23;20514;-67
2023/01/01 09:47:40;;;;;;;4.73;3.07;;;16.40;99.90;;;;;;6083019;23;20445;-68
2023/01/01 09:50:12;;;;;;;3.80;3.17;;;16.60;99.90;;;;;;6088142;23;20442;-67
2023/01/01 09:52:45;;;;;;;3.30;3.00;;;16.90;99.90;;;;;;6087844;23;20503;-67
2023/01/01 09:55:20;;;;;;;3.87;3.57;;;17.10;99.90;;;;;;6096629;23;20998;-67
2023/01/01 09:57:48;;;;;;;4.90;4.50;;;17.30;99.90;;;;;;6082421;23;20526;-67
2023/01/01 10:00:18;;;;;;;5.83;5.20;;;17.40;99.90;;;;;;6087934;23;20468;-67
2023/01/01 10:03:06;;;;;;;6.03;5.43;;;17.60;99.90;;;;;;6095274;23;20434;-78
2023/01/01 10:05:43;;;;;;;6.53;5.93;;;17.40;99.90;;;;;;6086791;23;20446;-67
2023/01/01 10:08:19;;;;;;;7.50;6.83;;;17.30;99.90;;;;;;6087203;23;20504;-68
2023/01/01 10:10:55;;;;;;;7.20;6.60;;;17.30;99.90;;;;;;6093396;23;20445;-67
2023/01/01 10:13:26;;;;;;;9.00;7.30;;;17.20;99.90;;;;;;6085289;23;20961;-67
2023/01/01 10:15:59;;;;;;;7.07;6.47;;;17.00;99.90;;;;;;6050294;23;20534;-68
2023/01/01 10:18:32;;;;;;;7.33;6.63;;;17.10;99.90;;;;;;6065043;23;20460;-67
2023/01/01 10:21:04;;;;;;;7.67;6.90;;;17.30;99.90;;;;;;6069869;23;20462;-67
2023/01/01 10:23:35;;;;;;;8.00;7.00;;;17.40;99.90;;;;;;6073696;23;20459;-67
2023/01/01 10:26:10;;;;;;;7.10;6.50;;;17.60;99.90;;;;;;6068276;23;20946;-67
2023/01/01 10:28:43;;;;;;;7.27;6.57;;;17.70;99.90;;;;;;6067550;23;20464;-67
2023/01/01 10:31:28;;;;;;;7.30;6.70;;;17.40;99.90;;;;;;6070607;23;20508;-66
2023/01/01 10:33:55;;;;;;;7.37;6.77;;;17.40;99.90;;;;;;6065140;23;20549;-66
2023/01/01 10:36:22;;;;;;;7.00;6.40;;;17.60;99.90;;;;;;6065388;23;20469;-67
2023/01/01 10:38:51;;;;;;;8.03;6.73;;;17.70;99.90;;;;;;6064638;23;20463;-67
2023/01/01 10:41:18;;;;;;;8.03;7.27;;;18.00;99.90;;;;;;6063170;23;21263;-67
2023/01/01 10:43:47;;;;;;;7.50;6.80;;;18.00;99.90;;;;;;6063998;23;20561;-67
2023/01/01 10:46:18;;;;;;;6.67;6.07;;;18.00;99.90;;;;;;6065411;23;20435;-67
2023/01/01 10:49:09;;;;;;;7.90;7.20;;;18.20;99.90;;;;;;6062650;23;20545;-70
2023/01/01 10:51:41;;;;;;;7.50;6.80;;;18.00;99.90;;;;;;6067445;23;20443;-67
2023/01/01 10:54:25;;;;;;;7.43;6.73;;;17.80;99.90;;;;;;6064235;23;20790;-66
2023/01/01 10:56:51;;;;;;;8.03;7.10;;;17.70;99.90;;;;;;6068394;23;20524;-66
2023/01/01 10:59:37;;;;;;;7.50;6.80;;;18.00;99.90;;;;;;6081253;23;20479;-66
2023/01/01 11:02:15;;;;;;;6.13;5.57;;;18.20;99.90;;;;;;6090786;23;20462;-66
2023/01/01 11:04:44;;;;;;;7.30;6.60;;;18.20;99.90;;;;;;6083164;23;20794;-66
2023/01/01 11:07:19;;;;;;;6.43;5.83;;;18.30;99.90;;;;;;6088887;23;20488;-66
2023/01/01 11:09:49;;;;;;;9.33;6.53;;;18.10;99.90;;;;;;6085334;23;20799;-66
2023/01/01 11:12:20;;;;;;;6.37;5.77;;;18.20;99.90;;;;;;6089455;23;20463;-66
2023/01/01 11:14:53;;;;;;;6.40;5.80;;;18.30;99.90;;;;;;6091347;23;20478;-66
2023/01/01 11:17:25;;;;;;;5.60;5.10;;;18.60;99.90;;;;;;6088789;23;20487;-67
2023/01/01 11:19:54;;;;;;;7.10;5.47;;;18.70;99.90;;;;;;6089021;23;20882;-66
2023/01/01 11:22:39;;;;;;;5.80;5.20;;;19.00;99.90;;;;;;6090136;23;20506;-66
2023/01/01 11:25:19;;;;;;;5.07;4.63;;;19.30;99.90;;;;;;6090341;23;20442;-66
2023/01/01 11:27:47;;;;;;;4.10;3.70;;;19.60;99.90;;;;;;6077641;23;20430;-67
2023/01/01 11:30:21;;;;;;;3.73;3.07;;;19.90;99.90;;;;;;6090253;23;20933;-66
2023/01/01 11:32:49;;;;;;;2.80;2.60;;;20.10;99.90;;;;;;6075815;23;20799;-67
2023/01/01 11:35:22;;;;;;;3.30;2.60;;;20.40;99.90;;;;;;6066660;23;20526;-67
2023/01/01 11:37:50;;;;;;;3.60;2.43;;;20.70;99.90;;;;;;6072531;23;20529;-67
2023/01/01 11:40:21;;;;;;;5.30;2.73;;;20.70;99.90;;;;;;6075072;23;20442;-68
2023/01/01 11:42:51;;;;;;;4.17;3.80;;;20.50;99.90;;;;;;6075439;23;20440;-67
2023/01/01 11:45:21;;;;;;;4.27;3.87;;;20.60;99.90;;;;;;6077807;23;20439;-67
2023/01/01 11:47:53;;;;;;;5.13;4.63;;;20.40;99.90;;;;;;6072501;23;20545;-67
2023/01/01 11:50:28;;;;;;;5.10;4.20;;;20.40;99.90;;;;;;6065509;23;20439;-67
2023/01/01 11:52:58;;;;;;;5.47;3.90;;;20.70;99.90;;;;;;6085181;23;20440;-67
2023/01/01 11:55:37;;;;;;;4.17;3.33;;;20.50;99.90;;;;;;6102335;23;20470;-67
2023/01/01 11:58:10;;;;;;;5.23;3.30;;;20.80;99.90;;;;;;6079676;23;20458;-67
2023/01/01 12:00:38;;;;;;;4.23;3.37;;;20.80;99.90;;;;;;6084055;23;20461;-67
2023/01/01 12:03:15;;;;;;;3.23;2.93;;;20.60;99.90;;;;;;6085991;23;20470;-67
2023/01/01 12:05:49;;;;;;;5.60;3.53;;;20.50;99.90;;;;;;6093626;23;20447;-67
2023/01/01 12:08:28;;;;;;;6.23;3.33;;;20.50;99.90;;;;;;6088346;23;20544;-68
2023/01/01 12:11:00;;;;;;;4.57;3.27;;;20.60;99.90;;;;;;6092129;23;20552;-66
2023/01/01 12:13:32;;;;;;;3.67;3.00;;;20.60;99.90;;;;;;6085371;23;20465;-67
2023/01/01 12:16:07;;;;;;;3.50;2.73;;;20.80;99.90;;;;;;6090165;23;20462;-67
2023/01/01 12:18:41;;;;;;;2.93;2.47;;;21.00;99.90;;;;;;6086203;23;20968;-67
2023/01/01 12:21:18;;;;;;;2.70;2.50;;;21.10;99.90;;;;;;6089384;23;20459;-67
2023/01/01 12:23:45;;;;;;;3.13;2.73;;;21.10;99.90;;;;;;6096862;23;20446;-67
2023/01/01 12:26:19;;;;;;;4.37;2.53;;;21.10;99.90;;;;;;6099847;23;20448;-67
2023/01/01 12:29:07;;;;;;;3.93;2.77;;;21.20;99.90;;;;;;6087080;23;20869;-67
2023/01/01 12:31:43;;;;;;;3.37;2.57;;;21.20;99.90;;;;;;6083158;23;20849;-67
2023/01/01 12:34:19;;;;;;;3.40;2.80;;;21.10;99.90;;;;;;6086702;23;20532;-67
2023/01/01 12:36:55;;;;;;;4.50;2.77;;;21.00;99.90;;;;;;6084148;23;20954;-71
2023/01/01 12:39:59;;;;;;;2.90;2.60;;;20.70;99.90;;;;;;6083045;23;20464;-70
2023/01/01 12:42:38;;;;;;;4.10;2.40;;;20.60;99.90;;;;;;6089460;23;20465;-71
2023/01/01 12:45:26;;;;;;;3.30;2.70;;;20.40;99.90;;;;;;6111721;23;20443;-70
2023/01/01 12:48:00;;;;;;;3.43;2.70;;;20.40;99.90;;;;;;6090691;23;20497;-70
2023/01/01 12:50:40;;;;;;;3.20;2.60;;;20.30;99.90;;;;;;6083165;23;20433;-73
2023/01/01 12:53:21;;;;;;;4.70;2.60;;;20.30;99.90;;;;;;6085353;23;20521;-74
2023/01/01 12:56:12;;;;;;;3.10;2.80;;;20.20;99.90;;;;;;6078288;23;20437;-67
2023/01/01 12:58:44;;;;;;;3.27;2.60;;;20.10;99.90;;;;;;6089291;23;20569;-67
2023/01/01 13:01:16;;;;;;;3.60;2.10;;;20.20;99.90;;;;;;6069898;23;20469;-67
2023/01/01 13:03:50;;;;;;;3.00;2.37;;;20.20;99.90;;;;;;6073432;23;20448;-67
2023/01/01 13:06:19;;;;;;;5.30;2.60;;;20.30;99.90;;;;;;6082260;23;20468;-67